Flight NumberIPW5004 Date11.01.2019
Departure AirportHTDA Arrival AirportOIIE
Departure Time12.56Arrival Time19.03
Pilot In Commandbaset nemani Block Time6.10 Hours
Pilot Rating100 % AircraftD-ACBR [ 787-8 ]


Distance2,631.00 Nm. Passengers295
Fuel Used29,939 Kg. Cargo10985 Kg
Expense Details Income Details
Fuel Cost37,292 v$Ticket Sales88,500 v$
Pilot Salary11,310 v$ Cargo income29,246.00 v$
Crew Salary1,475 v$ Bonus18,850 v$
Gross Profit101,793 v$ ( 2,544,825 v$ )

Client Versionv2.2.1 Max Simrate1
Flight Critique Pilot CommentsOIIE 111730Z 30005KT CAVOK M00/M05 Q1025